Time;durP1;ratioP1;P1;durP2;ratioP2;P2;SDS_P1;SDS_P2;PMS_P1;PMS_P2;Temp;Humidity;BMP_temperature;BMP_pressure;BME280_temperature;BME280_humidity;BME280_pressure;Samples;Min_cycle;Max_cycle;Signal;HPM_P1;HPM_P2
2022/07/23 00:02:45;;;;;;;9.20;6.07;;;;;;;23.12;60.53;100729.47;10282686;29;20043;-88
2022/07/23 00:07:47;;;;;;;8.45;5.63;;;;;;;23.01;61.20;100733.19;10282772;29;20043;-88
2022/07/23 00:12:49;;;;;;;9.13;6.55;;;;;;;22.90;61.47;100738.50;10249472;29;20043;-88
2022/07/23 00:17:52;;;;;;;10.93;6.50;;;;;;;22.94;61.34;100739.44;10265149;29;20043;-87
2022/07/23 00:22:55;;;;;;;9.48;5.55;;;;;;;22.86;61.36;100732.00;10264956;29;20043;-88
2022/07/23 00:27:58;;;;;;;9.32;5.82;;;;;;;22.88;61.60;100734.44;10265407;29;20050;-88
2022/07/23 00:33:03;;;;;;;11.32;7.00;;;;;;;22.86;62.12;100743.19;10264966;29;20059;-88
2022/07/23 00:38:07;;;;;;;10.80;5.63;;;;;;;22.78;62.27;100746.97;10264725;29;20054;-88
2022/07/23 00:43:09;;;;;;;8.85;5.85;;;;;;;22.75;61.97;100742.09;10248580;29;20054;-87
2022/07/23 00:48:13;;;;;;;12.18;6.53;;;;;;;22.69;63.04;100749.13;10274362;28;20049;-88
2022/07/23 00:53:15;;;;;;;7.75;5.47;;;;;;;22.53;63.30;100751.91;10321428;28;20078;-88
2022/07/23 00:58:18;;;;;;;8.95;5.85;;;;;;;22.48;63.53;100750.19;10304572;28;20058;-88
2022/07/23 01:03:22;;;;;;;9.45;5.88;;;;;;;22.44;62.85;100745.69;10305058;28;20046;-88
2022/07/23 01:08:24;;;;;;;9.95;6.45;;;;;;;22.39;63.11;100748.72;10311362;28;20042;-88
2022/07/23 01:13:27;;;;;;;8.63;6.50;;;;;;;22.46;63.43;100738.56;10311142;28;20038;-88
2022/07/23 01:18:29;;;;;;;8.02;5.47;;;;;;;22.41;62.71;100733.25;10328543;28;20078;-88
2022/07/23 01:23:31;;;;;;;8.80;5.55;;;;;;;22.34;63.55;100738.63;10310928;28;20047;-87
2022/07/23 01:28:35;;;;;;;9.75;6.13;;;;;;;22.30;62.87;100734.13;10294914;28;20061;-89
2022/07/23 01:33:38;;;;;;;9.55;5.68;;;;;;;22.18;63.38;100726.59;10287960;28;20041;-88
2022/07/23 01:38:40;;;;;;;8.10;5.70;;;;;;;22.11;64.19;100730.03;10269773;29;20679;-88
2022/07/23 01:43:43;;;;;;;13.43;6.93;;;;;;;22.17;63.93;100728.59;10269981;29;20493;-87
2022/07/23 01:48:46;;;;;;;8.50;6.22;;;;;;;22.21;64.01;100734.28;10253975;29;20528;-88
2022/07/23 01:54:21;;;;;;;9.05;5.90;;;;;;;22.23;64.04;100726.38;10242657;29;20054;-88
2022/07/23 01:59:24;;;;;;;9.65;5.43;;;;;;;22.21;64.01;100721.09;10269342;29;20054;-88
2022/07/23 02:04:26;;;;;;;9.73;5.97;;;;;;;22.34;64.26;100733.03;10253468;29;20051;-88
2022/07/23 02:09:29;;;;;;;9.85;5.97;;;;;;;22.45;63.59;100722.16;10253163;29;20046;-88
2022/07/23 02:14:31;;;;;;;10.43;6.43;;;;;;;22.53;63.13;100721.97;10252486;28;20426;-88
2022/07/23 02:19:34;;;;;;;8.68;6.22;;;;;;;22.61;63.27;100719.38;10268737;29;20058;-88
2022/07/23 02:24:37;;;;;;;9.65;6.47;;;;;;;22.65;62.98;100709.06;10268195;29;20066;-88
2022/07/23 02:29:41;;;;;;;10.57;6.75;;;;;;;22.69;62.78;100704.38;10266818;29;20039;-88
2022/07/23 02:34:43;;;;;;;10.30;5.57;;;;;;;22.76;63.11;100704.56;10283873;29;20042;-88
2022/07/23 02:39:48;;;;;;;9.55;5.43;;;;;;;22.86;63.13;100695.63;10283967;29;20043;-88
2022/07/23 02:44:51;;;;;;;12.40;6.15;;;;;;;23.00;62.43;100687.59;10283661;29;20043;-87
2022/07/23 02:49:54;;;;;;;7.97;5.22;;;;;;;23.09;62.13;100690.19;10291955;28;20488;-88
2022/07/23 02:54:56;;;;;;;11.45;5.63;;;;;;;23.23;61.83;100679.31;10300013;28;20046;-88
2022/07/23 02:59:59;;;;;;;8.80;5.72;;;;;;;23.32;61.49;100673.50;10300429;28;20425;-88
2022/07/23 03:05:01;;;;;;;9.90;5.72;;;;;;;23.55;61.29;100674.41;10300535;28;20513;-87
2022/07/23 03:10:03;;;;;;;7.35;5.13;;;;;;;23.71;61.16;100671.56;10300519;28;20043;-88
2022/07/23 03:15:07;;;;;;;7.93;5.55;;;;;;;23.92;60.57;100659.94;10300302;28;20043;-88
2022/07/23 03:20:09;;;;;;;7.90;4.93;;;;;;;24.18;60.28;100656.44;10301012;28;20043;-88
2022/07/23 03:25:14;;;;;;;7.00;4.82;;;;;;;24.44;59.15;100664.94;10285608;28;20560;-87
2022/07/23 03:30:16;;;;;;;8.57;4.95;;;;;;;24.54;58.92;100660.72;10285193;28;20047;-87
2022/07/23 03:35:18;;;;;;;7.18;4.57;;;;;;;24.77;58.08;100653.06;10273143;28;20043;-88
2022/07/23 03:40:30;;;;;;;7.25;4.35;;;;;;;25.04;57.49;100633.47;10266117;29;20049;-89
2022/07/23 03:45:33;;;;;;;7.05;4.57;;;;;;;25.21;57.19;100627.28;10249857;29;20151;-88
2022/07/23 03:50:37;;;;;;;7.82;4.75;;;;;;;25.49;55.93;100636.03;10249974;29;20537;-88
2022/07/23 03:55:40;;;;;;;7.53;4.40;;;;;;;25.71;55.17;100619.50;10264435;29;20043;-88
2022/07/23 04:00:43;;;;;;;9.23;5.03;;;;;;;25.89;55.20;100626.13;10264772;29;20050;-89
2022/07/23 04:05:45;;;;;;;7.95;4.28;;;;;;;26.06;54.49;100631.13;10264798;29;20082;-88
2022/07/23 04:10:50;;;;;;;9.05;4.43;;;;;;;26.30;53.60;100620.47;10234515;29;20040;-88
2022/07/23 04:15:52;;;;;;;10.40;4.47;;;;;;;26.46;53.78;100615.41;10257467;29;20046;-88
2022/07/23 04:20:55;;;;;;;9.25;4.72;;;;;;;26.87;52.61;100606.84;10257384;29;20058;-88
2022/07/23 04:25:58;;;;;;;9.05;4.40;;;;;;;27.02;52.00;100597.31;10235475;29;20051;-88
2022/07/23 04:31:01;;;;;;;7.95;3.88;;;;;;;27.33;50.87;100587.41;10264816;29;20047;-88
2022/07/23 04:36:05;;;;;;;11.02;5.50;;;;;;;27.65;50.97;100583.94;10249186;29;20090;-88
2022/07/23 04:41:07;;;;;;;7.38;5.07;;;;;;;27.91;50.62;100577.94;10255496;29;20039;-88
2022/07/23 04:46:10;;;;;;;5.95;4.05;;;;;;;28.18;48.83;100584.00;10256371;29;20524;-87
2022/07/23 04:51:20;;;;;;;9.23;4.22;;;;;;;28.49;49.25;100579.59;10291822;28;20051;-88
2022/07/23 04:56:23;;;;;;;6.78;4.20;;;;;;;28.78;47.96;100567.03;10311700;28;20039;-88
2022/07/23 05:01:25;;;;;;;7.40;4.80;;;;;;;29.03;47.85;100567.00;10311638;28;20555;-89
2022/07/23 05:06:27;;;;;;;6.95;4.45;;;;;;;28.98;47.58;100556.09;10311649;28;20505;-88
2022/07/23 05:11:30;;;;;;;7.15;4.25;;;;;;;29.23;46.80;100555.22;10328472;28;20046;-89
2022/07/23 05:16:32;;;;;;;9.00;4.45;;;;;;;29.58;46.29;100545.78;10295200;28;20049;-89
2022/07/23 05:21:39;;;;;;;7.82;4.78;;;;;;;29.85;46.06;100540.31;10247098;29;20422;-88
2022/07/23 05:26:42;;;;;;;7.53;4.60;;;;;;;30.20;45.07;100536.44;10231228;29;20383;-88
2022/07/23 05:31:45;;;;;;;7.13;4.78;;;;;;;30.50;44.41;100530.09;10230889;29;20047;-88
2022/07/23 05:36:48;;;;;;;7.80;4.95;;;;;;;30.63;43.83;100524.75;10230214;29;20054;-88
2022/07/23 05:41:51;;;;;;;8.45;4.85;;;;;;;30.76;43.69;100520.94;10246098;29;20050;-88
2022/07/23 05:46:53;;;;;;;8.70;5.03;;;;;;;31.19;42.87;100509.09;10246482;29;20525;-88
2022/07/23 05:51:57;;;;;;;9.50;5.32;;;;;;;31.48;42.24;100518.81;10262166;29;20063;-89
2022/07/23 05:57:14;;;;;;;;;;;;;;;31.77;41.73;100515.59;10251319;29;20062;-88
2022/07/23 06:02:16;;;;;;;7.45;5.28;;;;;;;31.84;41.23;100501.28;10264768;29;19930;-89
2022/07/23 06:07:18;;;;;;;7.32;4.57;;;;;;;31.90;41.13;100493.88;10264946;29;20047;-88
2022/07/23 06:12:21;;;;;;;7.32;4.78;;;;;;;32.13;40.91;100490.25;10265264;29;20041;-89
2022/07/23 06:17:24;;;;;;;7.03;4.47;;;;;;;32.56;39.95;100495.16;10264968;29;20046;-89
2022/07/23 06:22:26;;;;;;;8.45;4.35;;;;;;;32.75;39.41;100479.38;10265435;29;20050;-88
2022/07/23 06:27:29;;;;;;;9.43;5.03;;;;;;;32.99;38.86;100478.09;10267809;28;20046;-89
2022/07/23 06:32:31;;;;;;;9.85;5.15;;;;;;;33.25;38.99;100468.56;10301291;28;20047;-87
2022/07/23 06:37:35;;;;;;;7.50;4.20;;;;;;;33.26;38.86;100470.16;10307963;28;20054;-86
2022/07/23 06:42:39;;;;;;;7.95;4.75;;;;;;;33.44;38.32;100480.34;10292677;28;20046;-87
2022/07/23 06:47:42;;;;;;;6.13;4.15;;;;;;;33.84;38.19;100481.84;10307914;28;20042;-86
2022/07/23 06:52:45;;;;;;;7.10;4.53;;;;;;;33.99;38.14;100476.56;10283435;29;20517;-87
2022/07/23 06:57:47;;;;;;;8.82;5.53;;;;;;;34.07;37.57;100465.81;10284350;29;20039;-86
2022/07/23 07:02:50;;;;;;;6.90;4.60;;;;;;;34.04;36.69;100452.47;10283344;28;20047;-88
2022/07/23 07:07:52;;;;;;;9.45;5.20;;;;;;;33.92;36.50;100454.00;10284209;29;20050;-88
2022/07/23 07:12:54;;;;;;;7.60;4.93;;;;;;;34.17;36.32;100439.09;10283780;29;20047;-87
2022/07/23 07:17:57;;;;;;;10.13;4.85;;;;;;;34.13;36.38;100450.56;10284192;29;20055;-87
2022/07/23 07:23:00;;;;;;;8.40;4.68;;;;;;;34.66;35.58;100450.38;10281366;29;20031;-87
2022/07/23 07:28:02;;;;;;;8.80;5.03;;;;;;;34.71;36.02;100447.78;10266412;29;20043;-87
2022/07/23 07:33:04;;;;;;;7.38;4.97;;;;;;;34.78;35.18;100440.25;10282709;29;20054;-87
2022/07/23 07:38:07;;;;;;;8.35;5.10;;;;;;;34.68;35.69;100440.09;10281287;29;20051;-87
2022/07/23 07:43:10;;;;;;;8.43;4.95;;;;;;;34.72;35.27;100431.47;10265456;29;20047;-88
2022/07/23 07:48:12;;;;;;;7.15;4.43;;;;;;;34.61;35.16;100426.06;10265759;29;20526;-88
2022/07/23 07:53:14;;;;;;;8.38;5.20;;;;;;;34.88;34.75;100439.94;10265441;29;20051;-87
2022/07/23 07:58:17;;;;;;;8.27;4.72;;;;;;;35.33;35.08;100450.41;10265495;29;20430;-87
2022/07/23 08:03:20;;;;;;;8.32;4.18;;;;;;;35.31;35.43;100438.66;10249763;29;20043;-87
2022/07/23 08:08:22;;;;;;;6.40;4.28;;;;;;;35.45;34.99;100438.22;10282638;29;20043;-88
2022/07/23 08:13:25;;;;;;;11.05;4.78;;;;;;;35.71;33.75;100441.03;10284912;28;20425;-88
2022/07/23 08:18:27;;;;;;;9.70;5.43;;;;;;;35.48;34.07;100436.50;10273218;29;20043;-87
2022/07/23 08:23:31;;;;;;;5.93;3.50;;;;;;;35.30;34.43;100432.13;10272931;29;20039;-87
2022/07/23 08:28:33;;;;;;;9.85;4.30;;;;;;;35.19;33.99;100437.38;10272791;29;20035;-87
2022/07/23 08:33:35;;;;;;;7.43;4.57;;;;;;;34.87;34.69;100432.66;10272682;29;20043;-88
2022/07/23 08:38:38;;;;;;;7.70;4.30;;;;;;;34.62;34.60;100427.69;10272422;29;20050;-87
2022/07/23 08:43:40;;;;;;;4.65;3.60;;;;;;;34.59;36.36;100424.94;10289479;29;20039;-87
2022/07/23 08:48:43;;;;;;;6.50;3.83;;;;;;;34.69;35.98;100432.34;10303577;28;20039;-87
2022/07/23 08:53:45;;;;;;;5.72;3.90;;;;;;;34.71;35.44;100432.69;10295058;28;20058;-87
2022/07/23 08:58:47;;;;;;;5.25;3.90;;;;;;;34.65;36.17;100423.91;10311496;28;20043;-86
2022/07/23 09:03:50;;;;;;;8.68;4.03;;;;;;;34.63;36.44;100423.56;10311579;28;20058;-88
2022/07/23 09:08:52;;;;;;;4.60;3.50;;;;;;;34.68;36.74;100425.06;10295238;28;20429;-87
2022/07/23 09:13:58;;;;;;;6.32;4.05;;;;;;;34.68;37.13;100427.91;10328356;28;20042;-88
2022/07/23 09:19:05;;;;;;;6.70;4.13;;;;;;;34.83;36.40;100420.53;10327927;28;20046;-89
2022/07/23 09:24:10;;;;;;;5.50;4.20;;;;;;;34.63;36.97;100417.06;10282842;28;20534;-87
2022/07/23 09:29:13;;;;;;;10.50;4.38;;;;;;;34.18;36.87;100412.19;10270740;29;20066;-88
2022/07/23 09:34:24;;;;;;;5.88;4.05;;;;;;;33.50;37.15;100404.63;10270581;29;20039;-88
2022/07/23 09:39:30;;;;;;;5.80;4.28;;;;;;;32.82;38.75;100400.50;10284311;29;20518;-90
2022/07/23 09:44:41;;;;;;;5.68;3.60;;;;;;;32.28;39.44;100394.25;10286638;29;20537;-87
2022/07/23 09:50:05;;;;;;;5.78;4.05;;;;;;;31.95;40.94;100393.28;10269670;29;20055;-90
2022/07/23 09:55:08;;;;;;;5.88;3.70;;;;;;;31.69;41.22;100386.38;10253730;29;20046;-87
2022/07/23 10:00:11;;;;;;;7.68;3.88;;;;;;;31.28;41.67;100378.97;10269349;29;20046;-89
2022/07/23 10:05:15;;;;;;;6.40;3.83;;;;;;;31.07;41.87;100367.94;10269167;29;20043;-88
2022/07/23 10:10:47;;;;;;;7.88;3.75;;;;;;;31.01;42.42;100370.44;10205439;29;20422;-89
2022/07/23 10:15:51;;;;;;;6.95;3.78;;;;;;;30.94;41.80;100364.09;10268874;29;20043;-88
2022/07/23 10:20:53;;;;;;;6.55;3.55;;;;;;;30.76;41.95;100359.47;10253003;29;20387;-90
2022/07/23 10:26:04;;;;;;;5.05;3.80;;;;;;;30.72;41.86;100357.88;10268336;29;20110;-90
2022/07/23 10:31:38;;;;;;;5.63;3.78;;;;;;;30.72;41.96;100355.06;10284890;29;20054;-88
2022/07/23 10:36:54;;;;;;;9.68;4.13;;;;;;;30.65;41.23;100364.47;10230003;28;20398;-88
2022/07/23 10:42:16;;;;;;;5.53;3.57;;;;;;;30.58;41.48;100354.03;10268245;29;20047;-87
2022/07/23 10:52:30;;;;;;;6.93;3.85;;;;;;;30.40;42.31;100363.97;10284690;29;20062;-87
2022/07/23 10:57:50;;;;;;;4.30;3.50;;;;;;;30.36;41.88;100361.16;10284626;29;20528;-87
2022/07/23 11:02:55;;;;;;;5.85;3.80;;;;;;;30.22;41.75;100353.66;10284820;29;20106;-88
2022/07/23 11:08:11;;;;;;;6.53;4.40;;;;;;;29.87;42.46;100380.28;10284228;28;20047;-87
2022/07/23 11:13:53;;;;;;;4.30;3.70;;;;;;;29.65;42.96;100376.03;10270014;29;20055;-87
2022/07/23 11:18:58;;;;;;;9.10;4.95;;;;;;;29.47;44.51;100398.00;10081604;29;20449;-87
2022/07/23 11:24:06;;;;;;;12.18;4.85;;;;;;;28.59;47.81;100422.69;10241179;29;20410;-87
2022/07/23 11:29:27;;;;;;;9.07;4.18;;;;;;;27.79;49.64;100421.22;10266573;29;20051;-87
2022/07/23 11:34:39;;;;;;;6.63;4.30;;;;;;;27.05;51.73;100427.53;10282914;29;20505;-88
2022/07/23 11:39:42;;;;;;;5.07;3.20;;;;;;;26.52;53.93;100408.41;10265823;29;20054;-88
2022/07/23 11:44:46;;;;;;;4.50;3.28;;;;;;;26.07;55.75;100418.19;10249979;29;20047;-87
2022/07/23 11:49:57;;;;;;;4.07;2.90;;;;;;;25.88;58.08;100419.28;10264773;29;20047;-87
2022/07/23 11:55:04;;;;;;;4.45;2.92;;;;;;;25.87;58.51;100431.72;10265775;29;20039;-87
2022/07/23 12:00:10;;;;;;;4.05;3.38;;;;;;;25.75;59.05;100423.59;10282529;29;20076;-87
2022/07/23 12:05:21;;;;;;;4.40;3.22;;;;;;;25.59;59.25;100440.69;10265676;29;20039;-88
2022/07/23 12:10:27;;;;;;;5.65;3.25;;;;;;;25.31;59.69;100466.47;10265646;29;20039;-87
2022/07/23 12:15:51;;;;;;;4.97;3.20;;;;;;;25.12;61.24;100441.41;10265662;29;20047;-88
2022/07/23 12:20:56;;;;;;;6.28;3.65;;;;;;;24.86;63.18;100453.53;10281844;29;20043;-89
2022/07/23 12:26:02;;;;;;;5.53;4.20;;;;;;;24.73;62.92;100469.78;10265134;29;20058;-89
2022/07/23 12:31:04;;;;;;;6.72;3.95;;;;;;;24.63;64.55;100464.84;10249291;29;20046;-87
2022/07/23 12:36:08;;;;;;;10.15;4.90;;;;;;;24.32;67.52;100424.78;10233709;29;20046;-90
2022/07/23 12:41:11;;;;;;;6.25;4.50;;;;;;;23.90;67.58;100413.69;10249375;29;20038;-89
2022/07/23 12:46:23;;;;;;;9.40;4.63;;;;;;;23.61;69.79;100417.25;10274718;28;20516;-87
2022/07/23 12:51:31;;;;;;;7.35;5.47;;;;;;;23.50;71.65;100405.81;10310653;28;20066;-87
2022/07/23 12:56:36;;;;;;;6.63;4.68;;;;;;;23.47;72.46;100398.16;10264658;29;20414;-87
2022/07/23 13:01:41;;;;;;;6.82;4.38;;;;;;;23.51;73.33;100399.03;10282118;28;20427;-87
2022/07/23 13:06:50;;;;;;;10.02;4.40;;;;;;;23.61;74.00;100414.44;10286927;29;20055;-88
2022/07/23 13:11:54;;;;;;;11.32;7.28;;;;;;;23.71;74.01;100413.78;10271630;29;20047;-89
2022/07/23 13:16:57;;;;;;;11.20;6.95;;;;;;;23.70;74.09;100420.59;10287110;29;20035;-89
2022/07/23 13:22:00;;;;;;;11.57;8.27;;;;;;;23.52;72.58;100422.25;10287328;29;20039;-89
2022/07/23 13:27:03;;;;;;;13.52;8.00;;;;;;;23.27;71.24;100417.03;10287866;29;20046;-87
2022/07/23 13:32:06;;;;;;;11.43;7.00;;;;;;;23.19;71.42;100415.25;10287914;29;20524;-89
2022/07/23 13:37:08;;;;;;;14.35;9.20;;;;;;;23.12;71.63;100429.94;10286415;29;20039;-90
2022/07/23 13:42:11;;;;;;;9.50;7.60;;;;;;;23.16;71.88;100430.81;10270411;29;20054;-89
2022/07/23 13:47:14;;;;;;;10.88;7.38;;;;;;;23.19;71.11;100428.47;10287204;29;20035;-89
2022/07/23 13:52:16;;;;;;;8.98;6.50;;;;;;;23.29;70.68;100430.66;10285808;29;20440;-88
2022/07/23 13:57:19;;;;;;;10.02;6.47;;;;;;;23.30;69.91;100421.06;10285474;29;20046;-89
2022/07/23 14:02:22;;;;;;;8.93;6.70;;;;;;;23.41;69.35;100413.66;10285318;29;20047;-88
2022/07/23 14:07:25;;;;;;;9.85;6.30;;;;;;;23.55;68.27;100410.28;10284853;29;20442;-89
2022/07/23 14:12:27;;;;;;;8.82;6.28;;;;;;;23.56;68.57;100400.69;10285627;28;20051;-90
2022/07/23 14:17:31;;;;;;;9.57;5.93;;;;;;;23.65;68.40;100402.09;10283701;29;20078;-90
2022/07/23 14:22:34;;;;;;;9.05;6.63;;;;;;;23.65;67.52;100407.72;10252702;29;20043;-89
2022/07/23 14:27:37;;;;;;;8.80;6.22;;;;;;;23.69;67.85;100404.97;10286210;29;20035;-90
2022/07/23 14:32:39;;;;;;;9.32;6.10;;;;;;;23.60;67.84;100426.81;10252616;29;20405;-89
2022/07/23 14:37:42;;;;;;;12.75;7.38;;;;;;;23.59;68.19;100406.38;10236811;29;20039;-90
2022/07/23 14:42:44;;;;;;;8.88;7.18;;;;;;;23.42;67.80;100418.06;10268513;29;20047;-90
2022/07/23 14:47:48;;;;;;;8.85;5.60;;;;;;;23.28;67.35;100409.44;10284339;29;20035;-89
2022/07/23 14:52:50;;;;;;;12.00;7.30;;;;;;;23.28;68.52;100401.84;10267292;29;20059;-89
2022/07/23 14:57:52;;;;;;;8.93;6.70;;;;;;;23.43;68.37;100412.13;10284522;29;20418;-89
2022/07/23 15:02:55;;;;;;;8.05;6.18;;;;;;;23.55;68.68;100390.69;10284170;29;20039;-90
2022/07/23 15:07:58;;;;;;;7.22;5.53;;;;;;;23.72;67.79;100399.41;10284305;29;20043;-89
2022/07/23 15:13:00;;;;;;;7.22;5.43;;;;;;;23.88;67.08;100385.25;10266848;29;20051;-89
2022/07/23 15:18:03;;;;;;;6.85;5.63;;;;;;;24.10;66.73;100385.53;10250876;29;20051;-89
2022/07/23 15:23:05;;;;;;;15.45;7.80;;;;;;;24.20;65.54;100382.91;10282761;28;20051;-89
2022/07/23 15:28:08;;;;;;;9.07;5.57;;;;;;;24.43;64.49;100394.06;10266970;29;20123;-89
2022/07/23 15:33:10;;;;;;;7.93;5.55;;;;;;;24.58;63.81;100395.03;10282825;29;20066;-89
2022/07/23 15:38:13;;;;;;;9.18;6.47;;;;;;;24.49;63.46;100392.53;10283430;29;20055;-89
2022/07/23 15:43:15;;;;;;;8.07;5.45;;;;;;;24.60;63.31;100387.03;10265869;29;20039;-89
2022/07/23 15:48:18;;;;;;;7.35;5.43;;;;;;;24.57;62.72;100396.22;10282966;29;20058;-90
2022/07/23 15:53:21;;;;;;;7.63;5.68;;;;;;;24.53;62.23;100404.63;10265777;29;20054;-89
2022/07/23 15:58:23;;;;;;;6.53;5.32;;;;;;;24.50;61.06;100398.97;10265968;29;20051;-89
2022/07/23 16:03:25;;;;;;;9.07;4.80;;;;;;;24.44;61.53;100408.88;10249842;29;20406;-89
2022/07/23 16:08:28;;;;;;;5.15;4.15;;;;;;;24.53;60.66;100409.41;10282878;29;20039;-90
2022/07/23 16:13:30;;;;;;;5.78;4.60;;;;;;;24.67;60.53;100415.22;10265304;29;20055;-90
2022/07/23 16:18:33;;;;;;;7.63;4.43;;;;;;;24.73;60.00;100413.66;10262710;29;20043;-90
2022/07/23 16:23:35;;;;;;;6.47;4.78;;;;;;;24.74;59.65;100408.88;10281109;28;20043;-89
2022/07/23 16:28:37;;;;;;;4.82;4.03;;;;;;;24.70;59.21;100397.59;10264903;29;20050;-89
2022/07/23 16:33:40;;;;;;;5.07;4.00;;;;;;;24.65;59.54;100409.19;10282207;28;20417;-89
2022/07/23 16:38:42;;;;;;;5.45;4.25;;;;;;;24.55;59.36;100395.81;10288559;29;20053;-89
2022/07/23 16:43:46;;;;;;;5.32;4.30;;;;;;;24.47;60.05;100394.09;10288565;29;20047;-89
2022/07/23 16:48:48;;;;;;;6.00;4.70;;;;;;;24.40;61.04;100389.22;10272367;29;20063;-89
2022/07/23 16:53:50;;;;;;;6.03;4.72;;;;;;;24.34;60.74;100391.53;10287960;29;20560;-89
2022/07/23 16:58:53;;;;;;;6.32;4.57;;;;;;;24.27;60.32;100383.00;10287595;29;20063;-89
2022/07/23 17:03:55;;;;;;;6.00;4.75;;;;;;;24.19;61.34;100384.09;10289100;29;20050;-89
2022/07/23 17:08:57;;;;;;;6.80;4.53;;;;;;;24.14;61.54;100376.03;10288636;29;20050;-90
2022/07/23 17:13:59;;;;;;;6.50;5.53;;;;;;;24.02;62.33;100393.06;10271804;29;20039;-89
2022/07/23 17:19:03;;;;;;;9.07;5.85;;;;;;;23.85;64.48;100390.81;10284566;29;20059;-89
2022/07/23 17:24:05;;;;;;;10.00;5.47;;;;;;;23.55;66.17;100388.69;10240256;29;20527;-89
2022/07/23 17:29:08;;;;;;;7.13;5.25;;;;;;;23.29;68.16;100386.66;10288331;29;20047;-89
2022/07/23 17:34:10;;;;;;;6.40;4.90;;;;;;;22.91;70.39;100393.16;10287753;29;20592;-89
2022/07/23 17:39:13;;;;;;;7.60;5.25;;;;;;;22.59;72.57;100397.28;10270578;29;20062;-89
2022/07/23 17:44:17;;;;;;;8.02;5.20;;;;;;;22.29;73.06;100388.66;10254415;28;20386;-89
2022/07/23 17:49:20;;;;;;;6.45;5.20;;;;;;;22.06;74.24;100383.78;10269142;29;20047;-89
2022/07/23 17:54:23;;;;;;;7.57;4.88;;;;;;;21.94;74.96;100383.84;10269909;29;20070;-89
2022/07/23 17:59:25;;;;;;;6.45;4.60;;;;;;;21.85;76.26;100370.06;10286629;29;20051;-89
2022/07/23 18:04:28;;;;;;;5.68;4.53;;;;;;;21.81;75.91;100369.19;10286738;29;20513;-89
2022/07/23 18:09:30;;;;;;;7.20;4.90;;;;;;;21.79;77.70;100371.53;10286876;29;20058;-89
2022/07/23 18:14:32;;;;;;;11.65;5.80;;;;;;;21.76;76.82;100372.28;10286308;29;20563;-89
2022/07/23 18:19:34;;;;;;;7.90;5.88;;;;;;;21.76;76.64;100372.28;10284121;29;20047;-89
2022/07/23 18:24:37;;;;;;;6.55;5.20;;;;;;;21.71;78.04;100363.38;10268410;29;20050;-89
2022/07/23 18:29:40;;;;;;;6.65;5.28;;;;;;;21.65;76.90;100371.19;10268561;29;20035;-89
2022/07/23 18:34:42;;;;;;;8.63;4.72;;;;;;;21.64;77.92;100364.00;10268699;29;20058;-88
2022/07/23 18:39:44;;;;;;;7.55;5.38;;;;;;;21.66;78.17;100376.41;10252348;29;20051;-90
2022/07/23 18:44:47;;;;;;;7.97;5.18;;;;;;;21.66;78.27;100370.81;10284983;29;20043;-89
2022/07/23 18:49:49;;;;;;;10.05;7.60;;;;;;;21.67;78.32;100380.00;10284593;29;20059;-89
2022/07/23 18:54:52;;;;;;;14.00;8.23;;;;;;;21.59;79.36;100364.28;10284649;29;20540;-88
2022/07/23 18:59:54;;;;;;;9.65;6.32;;;;;;;21.44;80.01;100365.09;10267209;29;20421;-89
2022/07/23 19:04:56;;;;;;;7.80;5.95;;;;;;;21.28;79.41;100356.72;10284300;29;20050;-89
2022/07/23 19:09:59;;;;;;;10.57;6.32;;;;;;;21.21;79.88;100356.53;10284454;29;20050;-88
2022/07/23 19:15:01;;;;;;;10.38;5.55;;;;;;;21.12;81.59;100341.91;10283974;29;20054;-88
2022/07/23 19:20:06;;;;;;;7.22;5.00;;;;;;;21.09;81.46;100349.03;10266436;29;20039;-89
2022/07/23 19:25:09;;;;;;;8.40;5.10;;;;;;;21.10;81.56;100359.03;10266614;29;20043;-88
2022/07/23 19:30:12;;;;;;;8.07;4.70;;;;;;;21.10;80.76;100358.22;10282452;29;20044;-89
2022/07/23 19:35:14;;;;;;;9.07;6.03;;;;;;;21.09;81.20;100354.63;10282104;29;20050;-88
2022/07/23 19:40:16;;;;;;;6.82;5.28;;;;;;;21.11;80.76;100357.03;10282213;29;20051;-89
2022/07/23 19:45:19;;;;;;;7.95;5.43;;;;;;;21.15;80.82;100350.38;10265391;29;20055;-88
2022/07/23 19:50:23;;;;;;;7.88;6.30;;;;;;;21.11;81.32;100362.63;10291502;28;20532;-89
2022/07/23 19:55:25;;;;;;;10.70;6.88;;;;;;;20.91;81.80;100370.88;10302234;28;20039;-89
2022/07/23 20:00:28;;;;;;;10.05;7.15;;;;;;;20.80;82.28;100364.19;10301652;28;20058;-90
2022/07/23 20:05:31;;;;;;;7.93;5.75;;;;;;;20.84;83.00;100364.31;10302581;28;20039;-89
2022/07/23 20:10:33;;;;;;;10.75;7.55;;;;;;;20.73;82.85;100369.59;10307031;28;20038;-89
2022/07/23 20:15:35;;;;;;;8.88;6.85;;;;;;;20.68;83.24;100367.06;10310991;28;20039;-89
2022/07/23 20:20:38;;;;;;;9.95;6.82;;;;;;;20.69;84.05;100377.84;10289009;28;20054;-89
2022/07/23 20:25:40;;;;;;;11.90;7.45;;;;;;;20.60;83.54;100366.03;10289674;29;20043;-89
2022/07/23 20:30:46;;;;;;;11.63;8.20;;;;;;;20.63;84.04;100370.09;10269608;29;20050;-89
2022/07/23 20:35:49;;;;;;;16.60;8.32;;;;;;;20.54;83.67;100378.63;10287625;29;20497;-86
2022/07/23 20:40:51;;;;;;;16.05;10.48;;;;;;;20.51;84.64;100382.13;10247640;29;20510;-86
2022/07/23 20:45:53;;;;;;;10.90;8.00;;;;;;;20.37;84.80;100387.25;10264912;29;20078;-86
2022/07/23 20:50:56;;;;;;;11.25;7.50;;;;;;;20.30;85.04;100384.22;10237634;29;20521;-86
2022/07/23 20:55:58;;;;;;;12.85;7.57;;;;;;;20.27;85.28;100382.16;10183243;29;20052;-86
2022/07/23 21:01:01;;;;;;;13.82;9.23;;;;;;;20.31;84.94;100380.31;10225260;29;20052;-86
2022/07/23 21:06:03;;;;;;;14.45;8.07;;;;;;;20.30;85.52;100384.22;10223929;29;20067;-86
2022/07/23 21:11:06;;;;;;;11.88;7.60;;;;;;;20.39;85.30;100387.69;10206452;29;20035;-86
2022/07/23 21:16:08;;;;;;;11.70;7.55;;;;;;;20.47;84.59;100395.94;10213072;29;20044;-86
2022/07/23 21:21:12;;;;;;;11.80;7.97;;;;;;;20.47;84.43;100395.94;10192179;29;20055;-85
2022/07/23 21:26:16;;;;;;;14.57;10.27;;;;;;;20.52;84.74;100402.44;10219802;29;20507;-86
2022/07/23 21:31:18;;;;;;;10.52;7.45;;;;;;;20.54;84.09;100403.72;10246222;29;20518;-86
2022/07/23 21:36:20;;;;;;;10.65;6.88;;;;;;;20.51;84.29;100404.41;10206525;29;20056;-86
2022/07/23 21:41:28;;;;;;;10.02;6.75;;;;;;;20.54;83.77;100409.28;10198926;29;20056;-85
2022/07/23 21:46:31;;;;;;;9.88;6.50;;;;;;;20.54;83.37;100414.84;10229382;29;20509;-85
2022/07/23 21:51:33;;;;;;;9.23;6.55;;;;;;;20.46;84.17;100401.84;10244993;29;20051;-85
2022/07/23 21:56:35;;;;;;;8.57;6.18;;;;;;;20.45;83.45;100405.81;10225734;29;20051;-85
2022/07/23 22:01:38;;;;;;;8.30;5.93;;;;;;;20.51;83.87;100410.00;10244713;29;20059;-85
2022/07/23 22:06:40;;;;;;;10.15;6.43;;;;;;;20.56;83.24;100406.94;10233003;29;20660;-85
2022/07/23 22:11:43;;;;;;;8.30;5.68;;;;;;;20.50;83.41;100402.81;10244546;29;20048;-85
2022/07/23 22:16:45;;;;;;;7.82;6.03;;;;;;;20.48;83.35;100407.91;10244691;29;20051;-85
2022/07/23 22:21:47;;;;;;;7.93;5.22;;;;;;;20.43;82.75;100416.50;10225465;29;20062;-84
2022/07/23 22:26:49;;;;;;;7.07;4.78;;;;;;;20.35;83.17;100414.66;10244673;29;20055;-85
2022/07/23 22:31:52;;;;;;;6.90;4.95;;;;;;;20.37;83.52;100426.25;10235218;29;20056;-85
2022/07/23 22:36:54;;;;;;;6.57;4.95;;;;;;;20.39;83.35;100421.16;10243796;29;20533;-85
2022/07/23 22:41:56;;;;;;;6.65;4.25;;;;;;;20.30;83.23;100412.91;10217728;29;20414;-84
2022/07/23 22:46:59;;;;;;;8.20;4.70;;;;;;;20.31;83.29;100420.13;10231602;29;20032;-85
2022/07/23 22:52:01;;;;;;;6.28;4.32;;;;;;;20.36;82.67;100408.72;10249168;29;20462;-85
2022/07/23 22:57:03;;;;;;;7.55;4.75;;;;;;;20.36;82.16;100405.94;10249534;29;20058;-85
2022/07/23 23:02:06;;;;;;;8.10;5.10;;;;;;;20.37;82.68;100404.78;10282617;29;20047;-85
2022/07/23 23:07:08;;;;;;;6.30;4.28;;;;;;;20.28;82.10;100394.91;10282945;29;20039;-86
2022/07/23 23:12:11;;;;;;;7.50;4.57;;;;;;;20.35;82.49;100409.09;10266024;29;20418;-85
2022/07/23 23:17:13;;;;;;;6.38;4.78;;;;;;;20.35;82.50;100411.88;10265899;29;20043;-85
2022/07/23 23:22:16;;;;;;;7.63;4.53;;;;;;;20.32;82.10;100401.44;10265347;29;20421;-86